sensor_id;sensor_type;location;lat;lon;timestamp;P1;durP1;ratioP1;P2;durP2;ratioP2
19521;SDS011;9905;52.126;5.596;2023-02-01T00:02:24;6.38;;;5.47;;
19521;SDS011;9905;52.126;5.596;2023-02-01T00:04:51;6.70;;;5.70;;
19521;SDS011;9905;52.126;5.596;2023-02-01T00:07:18;8.05;;;5.95;;
19521;SDS011;9905;52.126;5.596;2023-02-01T00:09:45;12.32;;;5.97;;
19521;SDS011;9905;52.126;5.596;2023-02-01T00:12:11;9.63;;;6.03;;
19521;SDS011;9905;52.126;5.596;2023-02-01T00:14:38;6.82;;;5.95;;
19521;SDS011;9905;52.126;5.596;2023-02-01T00:17:05;6.13;;;5.55;;
19521;SDS011;9905;52.126;5.596;2023-02-01T00:19:33;8.68;;;6.63;;
19521;SDS011;9905;52.126;5.596;2023-02-01T00:22:00;12.68;;;6.85;;
19521;SDS011;9905;52.126;5.596;2023-02-01T00:24:27;15.55;;;6.63;;
19521;SDS011;9905;52.126;5.596;2023-02-01T00:26:54;14.60;;;5.75;;
19521;SDS011;9905;52.126;5.596;2023-02-01T00:29:21;8.45;;;6.35;;
19521;SDS011;9905;52.126;5.596;2023-02-01T00:31:49;6.55;;;5.93;;
19521;SDS011;9905;52.126;5.596;2023-02-01T00:34:16;6.00;;;5.40;;
19521;SDS011;9905;52.126;5.596;2023-02-01T00:36:46;12.80;;;6.03;;
19521;SDS011;9905;52.126;5.596;2023-02-01T00:39:13;7.57;;;6.03;;
19521;SDS011;9905;52.126;5.596;2023-02-01T00:41:40;13.40;;;6.43;;
19521;SDS011;9905;52.126;5.596;2023-02-01T00:44:06;14.68;;;6.40;;
19521;SDS011;9905;52.126;5.596;2023-02-01T00:46:33;8.52;;;5.75;;
19521;SDS011;9905;52.126;5.596;2023-02-01T00:49:00;13.50;;;6.38;;
19521;SDS011;9905;52.126;5.596;2023-02-01T00:51:27;13.93;;;6.07;;
19521;SDS011;9905;52.126;5.596;2023-02-01T00:53:56;9.40;;;5.45;;
19521;SDS011;9905;52.126;5.596;2023-02-01T00:56:23;7.25;;;5.53;;
19521;SDS011;9905;52.126;5.596;2023-02-01T00:58:52;6.20;;;5.60;;
19521;SDS011;9905;52.126;5.596;2023-02-01T01:01:19;16.30;;;6.68;;
19521;SDS011;9905;52.126;5.596;2023-02-01T01:03:48;8.05;;;5.63;;
19521;SDS011;9905;52.126;5.596;2023-02-01T01:06:17;8.70;;;5.82;;
19521;SDS011;9905;52.126;5.596;2023-02-01T01:08:47;20.30;;;6.18;;
19521;SDS011;9905;52.126;5.596;2023-02-01T01:11:16;18.27;;;5.65;;
19521;SDS011;9905;52.126;5.596;2023-02-01T01:13:46;11.63;;;5.57;;
19521;SDS011;9905;52.126;5.596;2023-02-01T01:16:13;13.30;;;6.78;;
19521;SDS011;9905;52.126;5.596;2023-02-01T01:18:41;13.85;;;6.80;;
19521;SDS011;9905;52.126;5.596;2023-02-01T01:21:08;7.85;;;5.97;;
19521;SDS011;9905;52.126;5.596;2023-02-01T01:23:38;11.88;;;5.93;;
19521;SDS011;9905;52.126;5.596;2023-02-01T01:26:06;10.07;;;6.20;;
19521;SDS011;9905;52.126;5.596;2023-02-01T01:28:35;8.68;;;5.78;;
19521;SDS011;9905;52.126;5.596;2023-02-01T01:31:02;11.88;;;5.70;;
19521;SDS011;9905;52.126;5.596;2023-02-01T01:33:29;11.10;;;5.97;;
19521;SDS011;9905;52.126;5.596;2023-02-01T01:35:55;12.80;;;6.30;;
19521;SDS011;9905;52.126;5.596;2023-02-01T01:38:22;12.05;;;5.43;;
19521;SDS011;9905;52.126;5.596;2023-02-01T01:40:49;6.60;;;5.30;;
19521;SDS011;9905;52.126;5.596;2023-02-01T01:43:17;7.40;;;5.20;;
19521;SDS011;9905;52.126;5.596;2023-02-01T01:45:48;10.27;;;5.68;;
19521;SDS011;9905;52.126;5.596;2023-02-01T01:48:16;5.88;;;5.38;;
19521;SDS011;9905;52.126;5.596;2023-02-01T01:50:47;10.80;;;5.70;;
19521;SDS011;9905;52.126;5.596;2023-02-01T01:53:18;12.18;;;5.95;;
19521;SDS011;9905;52.126;5.596;2023-02-01T01:55:51;9.13;;;5.40;;
19521;SDS011;9905;52.126;5.596;2023-02-01T01:58:21;10.93;;;5.00;;
19521;SDS011;9905;52.126;5.596;2023-02-01T02:00:52;5.78;;;4.85;;
19521;SDS011;9905;52.126;5.596;2023-02-01T02:03:20;7.45;;;4.97;;
19521;SDS011;9905;52.126;5.596;2023-02-01T02:05:50;6.05;;;5.15;;
19521;SDS011;9905;52.126;5.596;2023-02-01T02:08:20;7.03;;;4.80;;
19521;SDS011;9905;52.126;5.596;2023-02-01T02:10:48;15.25;;;5.68;;
19521;SDS011;9905;52.126;5.596;2023-02-01T02:13:29;12.50;;;5.30;;
19521;SDS011;9905;52.126;5.596;2023-02-01T02:16:05;10.13;;;5.18;;
19521;SDS011;9905;52.126;5.596;2023-02-01T02:18:44;8.65;;;5.60;;
19521;SDS011;9905;52.126;5.596;2023-02-01T02:21:23;11.32;;;5.32;;
19521;SDS011;9905;52.126;5.596;2023-02-01T02:27:06;10.45;;;4.70;;
19521;SDS011;9905;52.126;5.596;2023-02-01T02:33:01;8.68;;;4.30;;
19521;SDS011;9905;52.126;5.596;2023-02-01T02:36:03;7.40;;;4.78;;
19521;SDS011;9905;52.126;5.596;2023-02-01T02:38:36;9.32;;;5.55;;
19521;SDS011;9905;52.126;5.596;2023-02-01T02:41:13;13.23;;;5.57;;
19521;SDS011;9905;52.126;5.596;2023-02-01T02:44:05;6.88;;;4.90;;
19521;SDS011;9905;52.126;5.596;2023-02-01T02:46:57;12.70;;;5.20;;
19521;SDS011;9905;52.126;5.596;2023-02-01T02:49:51;8.18;;;5.28;;
19521;SDS011;9905;52.126;5.596;2023-02-01T02:52:41;6.20;;;4.85;;
19521;SDS011;9905;52.126;5.596;2023-02-01T02:55:29;5.80;;;4.90;;
19521;SDS011;9905;52.126;5.596;2023-02-01T02:57:59;6.57;;;4.80;;
19521;SDS011;9905;52.126;5.596;2023-02-01T03:00:43;10.15;;;4.70;;
19521;SDS011;9905;52.126;5.596;2023-02-01T03:03:29;6.82;;;4.95;;
19521;SDS011;9905;52.126;5.596;2023-02-01T03:06:15;11.95;;;5.38;;
19521;SDS011;9905;52.126;5.596;2023-02-01T03:08:43;11.90;;;5.82;;
19521;SDS011;9905;52.126;5.596;2023-02-01T03:11:11;9.60;;;4.57;;
19521;SDS011;9905;52.126;5.596;2023-02-01T03:13:42;9.57;;;4.97;;
19521;SDS011;9905;52.126;5.596;2023-02-01T03:16:11;14.02;;;5.68;;
19521;SDS011;9905;52.126;5.596;2023-02-01T03:18:45;10.70;;;4.88;;
19521;SDS011;9905;52.126;5.596;2023-02-01T03:21:19;10.90;;;4.78;;
19521;SDS011;9905;52.126;5.596;2023-02-01T03:23:50;15.70;;;4.72;;
19521;SDS011;9905;52.126;5.596;2023-02-01T03:26:19;9.18;;;5.00;;
19521;SDS011;9905;52.126;5.596;2023-02-01T03:28:49;9.82;;;4.82;;
19521;SDS011;9905;52.126;5.596;2023-02-01T03:31:23;10.75;;;4.18;;
19521;SDS011;9905;52.126;5.596;2023-02-01T03:33:50;10.73;;;4.53;;
19521;SDS011;9905;52.126;5.596;2023-02-01T03:36:20;8.85;;;4.93;;
19521;SDS011;9905;52.126;5.596;2023-02-01T03:38:52;9.98;;;4.63;;
19521;SDS011;9905;52.126;5.596;2023-02-01T03:41:26;5.00;;;4.53;;
19521;SDS011;9905;52.126;5.596;2023-02-01T03:43:58;5.68;;;4.03;;
19521;SDS011;9905;52.126;5.596;2023-02-01T03:46:34;10.00;;;4.80;;
19521;SDS011;9905;52.126;5.596;2023-02-01T03:49:05;10.45;;;5.00;;
19521;SDS011;9905;52.126;5.596;2023-02-01T03:51:35;9.10;;;4.75;;
19521;SDS011;9905;52.126;5.596;2023-02-01T03:54:04;7.35;;;5.00;;
19521;SDS011;9905;52.126;5.596;2023-02-01T03:56:33;8.55;;;4.43;;
19521;SDS011;9905;52.126;5.596;2023-02-01T03:59:02;7.78;;;4.28;;
19521;SDS011;9905;52.126;5.596;2023-02-01T04:01:29;8.15;;;4.47;;
19521;SDS011;9905;52.126;5.596;2023-02-01T04:03:57;9.63;;;4.70;;
19521;SDS011;9905;52.126;5.596;2023-02-01T04:06:24;7.57;;;4.93;;
19521;SDS011;9905;52.126;5.596;2023-02-01T04:08:53;7.57;;;4.80;;
19521;SDS011;9905;52.126;5.596;2023-02-01T04:11:20;11.40;;;4.93;;
19521;SDS011;9905;52.126;5.596;2023-02-01T04:13:46;7.55;;;4.53;;
19521;SDS011;9905;52.126;5.596;2023-02-01T04:16:13;12.10;;;4.35;;
19521;SDS011;9905;52.126;5.596;2023-02-01T04:18:40;7.78;;;4.78;;
19521;SDS011;9905;52.126;5.596;2023-02-01T04:21:07;11.15;;;4.22;;
19521;SDS011;9905;52.126;5.596;2023-02-01T04:23:33;9.02;;;4.78;;
19521;SDS011;9905;52.126;5.596;2023-02-01T04:26:03;13.27;;;4.72;;
19521;SDS011;9905;52.126;5.596;2023-02-01T04:28:30;9.10;;;4.93;;
19521;SDS011;9905;52.126;5.596;2023-02-01T04:30:57;8.98;;;5.15;;
19521;SDS011;9905;52.126;5.596;2023-02-01T04:33:24;13.25;;;4.70;;
19521;SDS011;9905;52.126;5.596;2023-02-01T04:35:51;15.15;;;5.38;;
19521;SDS011;9905;52.126;5.596;2023-02-01T04:38:17;7.50;;;4.57;;
19521;SDS011;9905;52.126;5.596;2023-02-01T04:40:46;10.27;;;4.38;;
19521;SDS011;9905;52.126;5.596;2023-02-01T04:43:15;10.32;;;5.18;;
19521;SDS011;9905;52.126;5.596;2023-02-01T04:45:45;11.98;;;4.43;;
19521;SDS011;9905;52.126;5.596;2023-02-01T04:48:13;7.88;;;4.75;;
19521;SDS011;9905;52.126;5.596;2023-02-01T04:50:39;7.40;;;4.70;;
19521;SDS011;9905;52.126;5.596;2023-02-01T04:53:06;9.25;;;5.03;;
19521;SDS011;9905;52.126;5.596;2023-02-01T04:55:33;11.25;;;5.00;;
19521;SDS011;9905;52.126;5.596;2023-02-01T04:58:00;4.72;;;4.32;;
19521;SDS011;9905;52.126;5.596;2023-02-01T05:00:28;9.20;;;4.82;;
19521;SDS011;9905;52.126;5.596;2023-02-01T05:02:55;6.10;;;4.72;;
19521;SDS011;9905;52.126;5.596;2023-02-01T05:05:21;9.45;;;4.88;;
19521;SDS011;9905;52.126;5.596;2023-02-01T05:07:48;6.30;;;5.00;;
19521;SDS011;9905;52.126;5.596;2023-02-01T05:10:15;12.38;;;4.95;;
19521;SDS011;9905;52.126;5.596;2023-02-01T05:12:42;11.32;;;4.97;;
19521;SDS011;9905;52.126;5.596;2023-02-01T05:15:28;12.07;;;5.78;;
19521;SDS011;9905;52.126;5.596;2023-02-01T05:17:55;8.80;;;5.40;;
19521;SDS011;9905;52.126;5.596;2023-02-01T05:20:22;6.68;;;5.53;;
19521;SDS011;9905;52.126;5.596;2023-02-01T05:22:48;10.90;;;5.30;;
19521;SDS011;9905;52.126;5.596;2023-02-01T05:25:15;10.00;;;4.63;;
19521;SDS011;9905;52.126;5.596;2023-02-01T05:27:42;11.27;;;5.10;;
19521;SDS011;9905;52.126;5.596;2023-02-01T05:30:09;6.28;;;5.75;;
19521;SDS011;9905;52.126;5.596;2023-02-01T05:32:38;9.65;;;6.15;;
19521;SDS011;9905;52.126;5.596;2023-02-01T05:35:05;6.85;;;5.20;;
19521;SDS011;9905;52.126;5.596;2023-02-01T05:37:33;12.77;;;5.38;;
19521;SDS011;9905;52.126;5.596;2023-02-01T05:39:59;10.48;;;5.15;;
19521;SDS011;9905;52.126;5.596;2023-02-01T05:42:26;9.07;;;4.85;;
19521;SDS011;9905;52.126;5.596;2023-02-01T05:44:53;8.90;;;4.88;;
19521;SDS011;9905;52.126;5.596;2023-02-01T05:47:19;11.77;;;5.38;;
19521;SDS011;9905;52.126;5.596;2023-02-01T05:49:48;7.85;;;5.13;;
19521;SDS011;9905;52.126;5.596;2023-02-01T05:52:14;10.57;;;5.53;;
19521;SDS011;9905;52.126;5.596;2023-02-01T05:54:44;12.70;;;5.65;;
19521;SDS011;9905;52.126;5.596;2023-02-01T05:57:11;7.35;;;4.53;;
19521;SDS011;9905;52.126;5.596;2023-02-01T05:59:38;10.57;;;5.00;;
19521;SDS011;9905;52.126;5.596;2023-02-01T06:02:06;6.25;;;5.00;;
19521;SDS011;9905;52.126;5.596;2023-02-01T06:04:35;6.65;;;5.53;;
19521;SDS011;9905;52.126;5.596;2023-02-01T06:07:03;9.10;;;5.43;;
19521;SDS011;9905;52.126;5.596;2023-02-01T06:09:30;7.53;;;5.65;;
19521;SDS011;9905;52.126;5.596;2023-02-01T06:11:57;10.93;;;5.22;;
19521;SDS011;9905;52.126;5.596;2023-02-01T06:14:24;7.57;;;5.60;;
19521;SDS011;9905;52.126;5.596;2023-02-01T06:16:51;8.18;;;5.65;;
19521;SDS011;9905;52.126;5.596;2023-02-01T06:19:18;14.73;;;5.07;;
19521;SDS011;9905;52.126;5.596;2023-02-01T06:21:44;6.65;;;4.68;;
19521;SDS011;9905;52.126;5.596;2023-02-01T06:24:13;7.70;;;5.75;;
19521;SDS011;9905;52.126;5.596;2023-02-01T06:26:40;10.18;;;5.22;;
19521;SDS011;9905;52.126;5.596;2023-02-01T06:29:07;10.27;;;5.68;;
19521;SDS011;9905;52.126;5.596;2023-02-01T06:31:35;8.88;;;5.20;;
19521;SDS011;9905;52.126;5.596;2023-02-01T06:34:02;7.90;;;5.00;;
19521;SDS011;9905;52.126;5.596;2023-02-01T06:36:29;5.22;;;4.63;;
19521;SDS011;9905;52.126;5.596;2023-02-01T06:38:56;9.57;;;5.05;;
19521;SDS011;9905;52.126;5.596;2023-02-01T06:41:25;7.15;;;5.22;;
19521;SDS011;9905;52.126;5.596;2023-02-01T06:43:52;10.05;;;5.25;;
19521;SDS011;9905;52.126;5.596;2023-02-01T06:46:20;8.13;;;5.30;;
19521;SDS011;9905;52.126;5.596;2023-02-01T06:48:46;10.80;;;5.85;;
19521;SDS011;9905;52.126;5.596;2023-02-01T06:51:21;10.40;;;5.38;;
19521;SDS011;9905;52.126;5.596;2023-02-01T06:53:49;12.55;;;4.93;;
19521;SDS011;9905;52.126;5.596;2023-02-01T06:56:16;5.90;;;4.25;;
19521;SDS011;9905;52.126;5.596;2023-02-01T06:58:44;12.52;;;5.53;;
19521;SDS011;9905;52.126;5.596;2023-02-01T07:01:12;6.30;;;4.95;;
19521;SDS011;9905;52.126;5.596;2023-02-01T07:03:40;5.68;;;5.20;;
19521;SDS011;9905;52.126;5.596;2023-02-01T07:06:07;6.70;;;5.13;;
19521;SDS011;9905;52.126;5.596;2023-02-01T07:08:35;6.18;;;5.63;;
19521;SDS011;9905;52.126;5.596;2023-02-01T07:11:03;9.93;;;5.65;;
19521;SDS011;9905;52.126;5.596;2023-02-01T07:13:31;13.32;;;5.35;;
19521;SDS011;9905;52.126;5.596;2023-02-01T07:16:00;8.77;;;5.13;;
19521;SDS011;9905;52.126;5.596;2023-02-01T07:18:27;9.75;;;4.95;;
19521;SDS011;9905;52.126;5.596;2023-02-01T07:20:55;6.55;;;5.88;;
19521;SDS011;9905;52.126;5.596;2023-02-01T07:23:22;7.75;;;5.63;;
19521;SDS011;9905;52.126;5.596;2023-02-01T07:25:52;9.15;;;5.35;;
19521;SDS011;9905;52.126;5.596;2023-02-01T07:28:19;6.65;;;5.97;;
19521;SDS011;9905;52.126;5.596;2023-02-01T07:30:46;6.43;;;5.60;;
19521;SDS011;9905;52.126;5.596;2023-02-01T07:33:17;7.45;;;4.80;;
19521;SDS011;9905;52.126;5.596;2023-02-01T07:35:45;12.63;;;5.32;;
19521;SDS011;9905;52.126;5.596;2023-02-01T07:38:12;14.95;;;5.78;;
19521;SDS011;9905;52.126;5.596;2023-02-01T07:40:39;6.05;;;5.63;;
19521;SDS011;9905;52.126;5.596;2023-02-01T07:43:05;8.27;;;4.90;;
19521;SDS011;9905;52.126;5.596;2023-02-01T07:45:32;6.30;;;5.28;;
19521;SDS011;9905;52.126;5.596;2023-02-01T07:47:59;7.45;;;5.72;;
19521;SDS011;9905;52.126;5.596;2023-02-01T07:50:28;7.35;;;5.68;;
19521;SDS011;9905;52.126;5.596;2023-02-01T07:52:55;10.40;;;5.38;;
19521;SDS011;9905;52.126;5.596;2023-02-01T07:55:24;10.32;;;5.57;;
19521;SDS011;9905;52.126;5.596;2023-02-01T07:57:51;7.05;;;5.18;;
19521;SDS011;9905;52.126;5.596;2023-02-01T08:00:18;7.55;;;5.82;;
19521;SDS011;9905;52.126;5.596;2023-02-01T08:03:03;7.82;;;5.55;;
19521;SDS011;9905;52.126;5.596;2023-02-01T08:05:32;6.50;;;4.93;;
19521;SDS011;9905;52.126;5.596;2023-02-01T08:07:59;6.07;;;5.53;;
19521;SDS011;9905;52.126;5.596;2023-02-01T08:10:26;10.23;;;5.20;;
19521;SDS011;9905;52.126;5.596;2023-02-01T08:12:57;6.90;;;5.55;;
19521;SDS011;9905;52.126;5.596;2023-02-01T08:15:24;7.30;;;4.78;;
19521;SDS011;9905;52.126;5.596;2023-02-01T08:17:51;7.10;;;5.90;;
19521;SDS011;9905;52.126;5.596;2023-02-01T08:20:19;17.80;;;5.68;;
19521;SDS011;9905;52.126;5.596;2023-02-01T08:22:49;6.35;;;4.93;;
19521;SDS011;9905;52.126;5.596;2023-02-01T08:25:16;8.18;;;5.35;;
19521;SDS011;9905;52.126;5.596;2023-02-01T08:27:43;9.45;;;5.20;;
19521;SDS011;9905;52.126;5.596;2023-02-01T08:30:10;8.82;;;5.13;;
19521;SDS011;9905;52.126;5.596;2023-02-01T08:32:37;5.60;;;5.05;;
19521;SDS011;9905;52.126;5.596;2023-02-01T08:35:04;10.23;;;5.65;;
19521;SDS011;9905;52.126;5.596;2023-02-01T08:37:31;5.85;;;5.15;;
19521;SDS011;9905;52.126;5.596;2023-02-01T08:40:00;6.80;;;5.53;;
19521;SDS011;9905;52.126;5.596;2023-02-01T08:42:26;9.05;;;5.25;;
19521;SDS011;9905;52.126;5.596;2023-02-01T08:45:11;7.55;;;5.55;;
19521;SDS011;9905;52.126;5.596;2023-02-01T08:47:38;8.80;;;5.47;;
19521;SDS011;9905;52.126;5.596;2023-02-01T08:50:05;5.35;;;4.80;;
19521;SDS011;9905;52.126;5.596;2023-02-01T08:52:33;5.53;;;4.50;;
19521;SDS011;9905;52.126;5.596;2023-02-01T08:55:02;7.85;;;4.88;;
19521;SDS011;9905;52.126;5.596;2023-02-01T08:57:29;8.15;;;5.03;;
19521;SDS011;9905;52.126;5.596;2023-02-01T08:59:55;6.68;;;4.40;;
19521;SDS011;9905;52.126;5.596;2023-02-01T09:02:22;4.78;;;4.38;;
19521;SDS011;9905;52.126;5.596;2023-02-01T09:04:49;6.90;;;4.90;;
19521;SDS011;9905;52.126;5.596;2023-02-01T09:07:16;6.30;;;4.07;;
19521;SDS011;9905;52.126;5.596;2023-02-01T09:09:44;7.53;;;4.63;;
19521;SDS011;9905;52.126;5.596;2023-02-01T09:12:12;9.63;;;4.35;;
19521;SDS011;9905;52.126;5.596;2023-02-01T09:14:39;9.70;;;4.55;;
19521;SDS011;9905;52.126;5.596;2023-02-01T09:17:06;5.97;;;4.93;;
19521;SDS011;9905;52.126;5.596;2023-02-01T09:19:33;8.00;;;4.47;;
19521;SDS011;9905;52.126;5.596;2023-02-01T09:21:59;7.07;;;4.65;;
19521;SDS011;9905;52.126;5.596;2023-02-01T09:24:26;16.85;;;5.78;;
19521;SDS011;9905;52.126;5.596;2023-02-01T09:26:53;10.05;;;5.18;;
19521;SDS011;9905;52.126;5.596;2023-02-01T09:29:21;8.35;;;4.60;;
19521;SDS011;9905;52.126;5.596;2023-02-01T09:31:48;9.15;;;4.45;;
19521;SDS011;9905;52.126;5.596;2023-02-01T09:34:15;5.63;;;4.22;;
19521;SDS011;9905;52.126;5.596;2023-02-01T09:36:42;6.07;;;4.35;;
19521;SDS011;9905;52.126;5.596;2023-02-01T09:39:09;7.50;;;4.70;;
19521;SDS011;9905;52.126;5.596;2023-02-01T09:41:39;5.80;;;4.40;;
19521;SDS011;9905;52.126;5.596;2023-02-01T09:44:15;6.00;;;5.07;;
19521;SDS011;9905;52.126;5.596;2023-02-01T09:46:58;7.97;;;4.47;;
19521;SDS011;9905;52.126;5.596;2023-02-01T09:49:26;7.70;;;4.47;;
19521;SDS011;9905;52.126;5.596;2023-02-01T09:51:56;8.35;;;4.20;;
19521;SDS011;9905;52.126;5.596;2023-02-01T09:54:25;11.70;;;4.60;;
19521;SDS011;9905;52.126;5.596;2023-02-01T09:56:54;4.57;;;4.07;;
19521;SDS011;9905;52.126;5.596;2023-02-01T09:59:31;9.45;;;4.65;;
19521;SDS011;9905;52.126;5.596;2023-02-01T10:02:04;7.40;;;4.63;;
19521;SDS011;9905;52.126;5.596;2023-02-01T10:04:38;8.13;;;4.40;;
19521;SDS011;9905;52.126;5.596;2023-02-01T10:07:08;10.50;;;4.85;;
19521;SDS011;9905;52.126;5.596;2023-02-01T10:09:44;4.70;;;4.30;;
19521;SDS011;9905;52.126;5.596;2023-02-01T10:15:21;6.35;;;4.45;;
19521;SDS011;9905;52.126;5.596;2023-02-01T10:18:01;7.43;;;5.40;;
19521;SDS011;9905;52.126;5.596;2023-02-01T10:20:45;12.88;;;4.97;;
19521;SDS011;9905;52.126;5.596;2023-02-01T10:23:27;4.88;;;4.30;;
19521;SDS011;9905;52.126;5.596;2023-02-01T10:26:16;10.75;;;5.22;;
19521;SDS011;9905;52.126;5.596;2023-02-01T10:28:44;8.77;;;5.03;;
19521;SDS011;9905;52.126;5.596;2023-02-01T10:31:15;9.25;;;5.97;;
19521;SDS011;9905;52.126;5.596;2023-02-01T10:33:44;15.25;;;5.10;;
19521;SDS011;9905;52.126;5.596;2023-02-01T10:36:13;10.07;;;5.63;;
19521;SDS011;9905;52.126;5.596;2023-02-01T10:38:43;12.85;;;5.55;;
19521;SDS011;9905;52.126;5.596;2023-02-01T10:41:11;10.15;;;5.15;;
19521;SDS011;9905;52.126;5.596;2023-02-01T10:43:41;11.18;;;5.65;;
19521;SDS011;9905;52.126;5.596;2023-02-01T10:46:09;7.03;;;5.85;;
19521;SDS011;9905;52.126;5.596;2023-02-01T10:48:37;7.18;;;5.78;;
19521;SDS011;9905;52.126;5.596;2023-02-01T10:51:06;13.13;;;6.40;;
19521;SDS011;9905;52.126;5.596;2023-02-01T10:53:40;11.85;;;5.93;;
19521;SDS011;9905;52.126;5.596;2023-02-01T10:56:12;8.98;;;5.20;;
19521;SDS011;9905;52.126;5.596;2023-02-01T10:58:43;6.15;;;5.53;;
19521;SDS011;9905;52.126;5.596;2023-02-01T11:01:15;8.93;;;6.28;;
19521;SDS011;9905;52.126;5.596;2023-02-01T11:03:46;10.13;;;5.32;;
19521;SDS011;9905;52.126;5.596;2023-02-01T11:06:22;10.63;;;5.35;;
19521;SDS011;9905;52.126;5.596;2023-02-01T11:08:53;10.85;;;5.38;;
19521;SDS011;9905;52.126;5.596;2023-02-01T11:11:22;5.78;;;5.32;;
19521;SDS011;9905;52.126;5.596;2023-02-01T11:13:54;7.18;;;6.15;;
19521;SDS011;9905;52.126;5.596;2023-02-01T11:16:23;12.15;;;6.15;;
19521;SDS011;9905;52.126;5.596;2023-02-01T11:18:57;6.20;;;4.68;;
19521;SDS011;9905;52.126;5.596;2023-02-01T11:21:24;6.47;;;5.05;;
19521;SDS011;9905;52.126;5.596;2023-02-01T11:23:52;6.25;;;5.28;;
19521;SDS011;9905;52.126;5.596;2023-02-01T11:26:21;7.32;;;5.00;;
19521;SDS011;9905;52.126;5.596;2023-02-01T11:28:53;11.27;;;5.55;;
19521;SDS011;9905;52.126;5.596;2023-02-01T11:31:24;10.73;;;6.18;;
19521;SDS011;9905;52.126;5.596;2023-02-01T11:33:52;11.82;;;5.40;;
19521;SDS011;9905;52.126;5.596;2023-02-01T11:36:24;12.55;;;4.90;;
19521;SDS011;9905;52.126;5.596;2023-02-01T11:38:54;10.40;;;4.95;;
19521;SDS011;9905;52.126;5.596;2023-02-01T11:41:40;7.70;;;4.75;;
19521;SDS011;9905;52.126;5.596;2023-02-01T11:44:15;7.53;;;4.65;;
19521;SDS011;9905;52.126;5.596;2023-02-01T11:46:46;9.73;;;4.75;;
19521;SDS011;9905;52.126;5.596;2023-02-01T11:49:19;7.57;;;5.35;;
19521;SDS011;9905;52.126;5.596;2023-02-01T11:51:52;13.07;;;4.78;;
19521;SDS011;9905;52.126;5.596;2023-02-01T11:57:38;8.57;;;4.75;;
19521;SDS011;9905;52.126;5.596;2023-02-01T12:00:25;9.07;;;5.22;;
19521;SDS011;9905;52.126;5.596;2023-02-01T12:03:07;7.90;;;4.40;;
19521;SDS011;9905;52.126;5.596;2023-02-01T12:06:04;9.07;;;4.85;;
19521;SDS011;9905;52.126;5.596;2023-02-01T12:11:46;7.70;;;4.80;;
19521;SDS011;9905;52.126;5.596;2023-02-01T12:14:23;7.63;;;4.43;;
19521;SDS011;9905;52.126;5.596;2023-02-01T12:20:11;10.25;;;4.50;;
19521;SDS011;9905;52.126;5.596;2023-02-01T12:23:01;10.77;;;4.50;;
19521;SDS011;9905;52.126;5.596;2023-02-01T12:25:42;9.98;;;4.55;;
19521;SDS011;9905;52.126;5.596;2023-02-01T12:28:24;8.40;;;4.20;;
19521;SDS011;9905;52.126;5.596;2023-02-01T12:31:15;5.63;;;3.88;;
19521;SDS011;9905;52.126;5.596;2023-02-01T12:34:07;6.05;;;4.00;;
19521;SDS011;9905;52.126;5.596;2023-02-01T12:36:49;8.23;;;3.83;;
19521;SDS011;9905;52.126;5.596;2023-02-01T12:39:23;9.07;;;4.10;;
19521;SDS011;9905;52.126;5.596;2023-02-01T12:42:00;12.90;;;5.07;;
19521;SDS011;9905;52.126;5.596;2023-02-01T12:44:38;7.18;;;4.55;;
19521;SDS011;9905;52.126;5.596;2023-02-01T12:47:13;5.38;;;4.28;;
19521;SDS011;9905;52.126;5.596;2023-02-01T12:49:47;6.30;;;3.95;;
19521;SDS011;9905;52.126;5.596;2023-02-01T12:52:20;7.00;;;4.30;;
19521;SDS011;9905;52.126;5.596;2023-02-01T12:54:53;12.40;;;4.18;;
19521;SDS011;9905;52.126;5.596;2023-02-01T12:57:26;8.50;;;4.22;;
19521;SDS011;9905;52.126;5.596;2023-02-01T12:59:57;7.57;;;4.55;;
19521;SDS011;9905;52.126;5.596;2023-02-01T13:02:33;6.40;;;4.88;;
19521;SDS011;9905;52.126;5.596;2023-02-01T13:05:11;9.32;;;4.72;;
19521;SDS011;9905;52.126;5.596;2023-02-01T13:07:43;5.47;;;3.80;;
19521;SDS011;9905;52.126;5.596;2023-02-01T13:10:15;9.38;;;4.85;;
19521;SDS011;9905;52.126;5.596;2023-02-01T13:12:47;8.02;;;4.90;;
19521;SDS011;9905;52.126;5.596;2023-02-01T13:15:19;6.47;;;4.90;;
19521;SDS011;9905;52.126;5.596;2023-02-01T13:17:51;9.18;;;4.38;;
19521;SDS011;9905;52.126;5.596;2023-02-01T13:20:21;11.05;;;4.07;;
19521;SDS011;9905;52.126;5.596;2023-02-01T13:22:51;9.15;;;4.38;;
19521;SDS011;9905;52.126;5.596;2023-02-01T13:25:28;7.47;;;4.15;;
19521;SDS011;9905;52.126;5.596;2023-02-01T13:28:02;6.25;;;3.97;;
19521;SDS011;9905;52.126;5.596;2023-02-01T13:30:36;9.75;;;3.88;;
19521;SDS011;9905;52.126;5.596;2023-02-01T13:33:15;8.98;;;4.65;;
19521;SDS011;9905;52.126;5.596;2023-02-01T13:36:20;11.80;;;4.93;;
19521;SDS011;9905;52.126;5.596;2023-02-01T13:42:12;5.80;;;4.65;;
19521;SDS011;9905;52.126;5.596;2023-02-01T13:44:44;9.88;;;4.80;;
19521;SDS011;9905;52.126;5.596;2023-02-01T13:47:16;8.38;;;4.45;;
19521;SDS011;9905;52.126;5.596;2023-02-01T13:49:51;6.35;;;5.20;;
19521;SDS011;9905;52.126;5.596;2023-02-01T13:52:23;6.13;;;4.20;;
19521;SDS011;9905;52.126;5.596;2023-02-01T13:55:00;8.63;;;4.20;;
19521;SDS011;9905;52.126;5.596;2023-02-01T13:57:39;5.00;;;4.50;;
19521;SDS011;9905;52.126;5.596;2023-02-01T14:00:22;8.23;;;4.38;;
19521;SDS011;9905;52.126;5.596;2023-02-01T14:03:01;9.20;;;4.07;;
19521;SDS011;9905;52.126;5.596;2023-02-01T14:08:22;9.30;;;3.97;;
19521;SDS011;9905;52.126;5.596;2023-02-01T14:11:01;6.30;;;4.13;;
19521;SDS011;9905;52.126;5.596;2023-02-01T14:13:29;8.50;;;4.53;;
19521;SDS011;9905;52.126;5.596;2023-02-01T14:16:11;11.10;;;4.72;;
19521;SDS011;9905;52.126;5.596;2023-02-01T14:21:25;7.55;;;5.20;;
19521;SDS011;9905;52.126;5.596;2023-02-01T14:23:56;8.18;;;4.30;;
19521;SDS011;9905;52.126;5.596;2023-02-01T14:26:25;11.00;;;4.45;;
19521;SDS011;9905;52.126;5.596;2023-02-01T14:28:55;9.40;;;5.50;;
19521;SDS011;9905;52.126;5.596;2023-02-01T14:31:32;9.32;;;4.55;;
19521;SDS011;9905;52.126;5.596;2023-02-01T14:34:26;11.07;;;5.13;;
19521;SDS011;9905;52.126;5.596;2023-02-01T14:36:58;10.20;;;4.10;;
19521;SDS011;9905;52.126;5.596;2023-02-01T14:39:29;8.98;;;4.50;;
19521;SDS011;9905;52.126;5.596;2023-02-01T14:42:04;10.10;;;5.18;;
19521;SDS011;9905;52.126;5.596;2023-02-01T14:44:41;11.07;;;5.20;;
19521;SDS011;9905;52.126;5.596;2023-02-01T14:50:07;7.85;;;4.63;;
19521;SDS011;9905;52.126;5.596;2023-02-01T14:53:01;7.95;;;5.75;;
19521;SDS011;9905;52.126;5.596;2023-02-01T14:55:45;6.22;;;4.28;;
19521;SDS011;9905;52.126;5.596;2023-02-01T14:58:16;6.10;;;5.05;;
19521;SDS011;9905;52.126;5.596;2023-02-01T15:00:54;7.28;;;4.30;;
19521;SDS011;9905;52.126;5.596;2023-02-01T15:03:31;7.63;;;5.13;;
19521;SDS011;9905;52.126;5.596;2023-02-01T15:06:13;7.72;;;5.82;;
19521;SDS011;9905;52.126;5.596;2023-02-01T15:08:48;5.63;;;5.13;;
19521;SDS011;9905;52.126;5.596;2023-02-01T15:11:19;10.13;;;5.88;;
19521;SDS011;9905;52.126;5.596;2023-02-01T15:13:49;10.15;;;5.40;;
19521;SDS011;9905;52.126;5.596;2023-02-01T15:16:19;13.38;;;6.97;;
19521;SDS011;9905;52.126;5.596;2023-02-01T15:18:49;6.60;;;5.82;;
19521;SDS011;9905;52.126;5.596;2023-02-01T15:21:17;7.93;;;5.25;;
19521;SDS011;9905;52.126;5.596;2023-02-01T15:23:46;8.43;;;6.63;;
19521;SDS011;9905;52.126;5.596;2023-02-01T15:26:26;5.97;;;5.47;;
19521;SDS011;9905;52.126;5.596;2023-02-01T15:28:54;7.55;;;5.93;;
19521;SDS011;9905;52.126;5.596;2023-02-01T15:31:32;8.48;;;6.70;;
19521;SDS011;9905;52.126;5.596;2023-02-01T15:34:03;7.45;;;6.10;;
19521;SDS011;9905;52.126;5.596;2023-02-01T15:36:30;10.70;;;6.95;;
19521;SDS011;9905;52.126;5.596;2023-02-01T15:39:17;8.77;;;5.95;;
19521;SDS011;9905;52.126;5.596;2023-02-01T15:41:49;9.68;;;5.95;;
19521;SDS011;9905;52.126;5.596;2023-02-01T15:44:18;7.72;;;5.53;;
19521;SDS011;9905;52.126;5.596;2023-02-01T15:46:49;10.73;;;6.50;;
19521;SDS011;9905;52.126;5.596;2023-02-01T15:49:20;9.02;;;5.47;;
19521;SDS011;9905;52.126;5.596;2023-02-01T15:51:51;11.23;;;5.40;;
19521;SDS011;9905;52.126;5.596;2023-02-01T15:54:20;8.07;;;5.72;;